Time;durP1;ratioP1;P1;durP2;ratioP2;P2;SDS_P1;SDS_P2;PMS_P1;PMS_P2;Temp;Humidity;BMP_temperature;BMP_pressure;BME280_temperature;BME280_humidity;BME280_pressure;Samples;Min_cycle;Max_cycle;Signal;HPM_P1;HPM_P2
2022/08/09 00:01:14;;;;;;;62.58;59.50;;;;;;;26.27;36.84;102592.50;4880657;29;20033;-70
2022/08/09 00:03:42;;;;;;;64.72;61.72;;;;;;;26.24;36.56;102586.75;4879209;29;20057;-70
2022/08/09 00:06:08;;;;;;;64.93;61.63;;;;;;;26.22;36.58;102584.28;4894636;29;20041;-70
2022/08/09 00:08:33;;;;;;;66.55;63.45;;;;;;;26.19;36.51;102584.91;4880301;29;20044;-70
2022/08/09 00:10:59;;;;;;;67.88;64.57;;;;;;;26.17;37.13;102583.56;4880807;29;20534;-68
2022/08/09 00:13:25;;;;;;;64.13;61.13;;;;;;;26.14;37.09;102582.22;4880253;29;20033;-70
2022/08/09 00:15:51;;;;;;;66.15;62.97;;;;;;;26.10;36.92;102584.75;4879878;29;20040;-68
2022/08/09 00:18:16;;;;;;;69.45;66.10;;;;;;;26.07;37.10;102581.78;4880309;29;20037;-69
2022/08/09 00:20:42;;;;;;;65.97;62.85;;;;;;;26.05;37.13;102578.50;4879935;29;20036;-71
2022/08/09 00:23:07;;;;;;;65.40;62.03;;;;;;;26.02;37.24;102570.81;4894394;29;20128;-69
2022/08/09 00:25:32;;;;;;;63.20;59.88;;;;;;;25.99;36.94;102577.78;4894428;29;20032;-69
2022/08/09 00:27:58;;;;;;;60.97;57.70;;;;;;;25.96;36.90;102570.09;4878720;29;20372;-70
2022/08/09 00:30:23;;;;;;;61.78;58.88;;;;;;;25.94;36.80;102571.50;4880513;29;20108;-70
2022/08/09 00:32:49;;;;;;;61.10;58.10;;;;;;;25.90;37.26;102571.28;4879977;29;20029;-69
2022/08/09 00:35:14;;;;;;;62.95;59.70;;;;;;;25.87;37.38;102569.94;4880277;29;20064;-71
2022/08/09 00:42:50;;;;;;;61.10;58.20;;;;;;;25.80;37.05;102576.94;4848930;27;20411;-70
2022/08/09 00:45:15;;;;;;;63.78;60.67;;;;;;;25.76;37.19;102579.50;4897892;29;20051;-70
2022/08/09 00:47:40;;;;;;;61.92;58.83;;;;;;;25.73;37.29;102574.59;4898111;29;20037;-69
2022/08/09 00:50:06;;;;;;;59.72;56.92;;;;;;;25.70;37.44;102569.63;4898134;29;20437;-70
2022/08/09 00:52:32;;;;;;;62.65;59.67;;;;;;;25.67;37.34;102570.25;4898209;29;20040;-70
2022/08/09 00:54:58;;;;;;;59.85;56.95;;;;;;;25.64;37.07;102577.19;4898113;29;20127;-69
2022/08/09 00:57:24;;;;;;;62.25;59.03;;;;;;;25.62;37.37;102578.63;4897993;29;20062;-70
2022/08/09 00:59:49;;;;;;;58.15;55.35;;;;;;;25.59;37.34;102570.94;4898040;29;20412;-70
2022/08/09 01:02:21;;;;;;;59.97;57.08;;;;;;;25.56;37.58;102583.44;4897122;29;20089;-70
2022/08/09 01:05:11;;;;;;;59.83;56.83;;;;;;;25.53;37.71;102578.50;4897944;29;20084;-70
2022/08/09 01:07:44;;;;;;;59.75;56.75;;;;;;;25.50;37.57;102581.03;4897898;29;20084;-70
2022/08/09 01:10:28;;;;;;;59.17;56.28;;;;;;;25.47;37.55;102576.91;4896943;29;20380;-70
2022/08/09 01:13:14;;;;;;;60.95;58.05;;;;;;;25.42;37.37;102580.56;4898226;29;20035;-70
2022/08/09 01:15:45;;;;;;;62.47;59.30;;;;;;;25.41;37.33;102583.66;4897874;29;20024;-70
2022/08/09 01:18:18;;;;;;;60.00;56.90;;;;;;;25.38;37.61;102575.97;4898173;29;20028;-70
2022/08/09 01:21:01;;;;;;;59.67;56.78;;;;;;;25.35;37.45;102574.63;4896624;29;20540;-70
2022/08/09 01:23:53;;;;;;;62.67;59.75;;;;;;;25.33;37.79;102579.63;4898025;29;20041;-70
2022/08/09 01:26:18;;;;;;;59.03;56.05;;;;;;;25.29;37.48;102575.78;4896466;29;20053;-70
2022/08/09 01:28:49;;;;;;;59.95;56.88;;;;;;;25.26;37.43;102571.69;4897493;29;20397;-70
2022/08/09 01:31:19;;;;;;;57.80;54.63;;;;;;;25.24;37.44;102570.34;4898041;29;20040;-70
2022/08/09 01:33:46;;;;;;;58.20;55.17;;;;;;;25.21;37.94;102571.75;4898339;29;20108;-70
2022/08/09 01:36:16;;;;;;;60.40;56.85;;;;;;;25.19;37.59;102576.75;4897671;29;20037;-70
2022/08/09 01:38:45;;;;;;;59.67;56.58;;;;;;;25.16;37.52;102579.28;4897400;29;20037;-70
2022/08/09 01:41:14;;;;;;;57.95;54.70;;;;;;;25.14;37.75;102573.22;4897851;29;20079;-70
2022/08/09 01:43:44;;;;;;;58.30;55.13;;;;;;;25.11;37.60;102574.63;4897650;29;20393;-69
2022/08/09 01:46:11;;;;;;;59.45;56.35;;;;;;;25.08;38.18;102580.75;4897647;29;20035;-69
2022/08/09 01:48:38;;;;;;;58.90;56.00;;;;;;;25.06;38.14;102583.00;4897602;29;20036;-70
2022/08/09 01:51:05;;;;;;;62.58;58.83;;;;;;;25.03;37.65;102572.53;4897800;29;20080;-70
2022/08/09 01:53:32;;;;;;;59.33;56.22;;;;;;;25.02;38.10;102576.41;4898005;29;20044;-70
2022/08/09 01:55:58;;;;;;;57.33;54.42;;;;;;;24.99;37.91;102575.06;4901118;29;20032;-69
2022/08/09 01:58:27;;;;;;;58.22;55.33;;;;;;;24.96;38.25;102575.66;4900841;29;20040;-69
2022/08/09 02:00:54;;;;;;;59.85;56.95;;;;;;;24.94;37.72;102579.81;4901574;29;20092;-70
2022/08/09 02:03:22;;;;;;;60.15;56.95;;;;;;;24.91;37.98;102592.31;4900444;29;20434;-70
2022/08/09 02:05:50;;;;;;;60.25;56.83;;;;;;;24.89;37.92;102596.47;4901092;29;20088;-69
2022/08/09 02:08:19;;;;;;;56.55;53.45;;;;;;;24.86;37.95;102592.38;4900919;29;20444;-70
2022/08/09 02:10:49;;;;;;;58.10;55.13;;;;;;;24.84;38.29;102586.31;4900855;29;20473;-70
2022/08/09 02:13:18;;;;;;;55.22;52.50;;;;;;;24.82;38.14;102583.00;4899866;29;20036;-70
2022/08/09 02:15:48;;;;;;;57.30;54.33;;;;;;;24.79;37.83;102583.59;4900664;29;20528;-70
2022/08/09 02:18:17;;;;;;;54.92;52.20;;;;;;;24.75;37.96;102583.38;4900790;29;20036;-70
2022/08/09 02:20:45;;;;;;;55.80;53.08;;;;;;;24.73;38.03;102582.84;4900800;29;20390;-70
2022/08/09 02:23:19;;;;;;;55.90;53.15;;;;;;;24.71;38.25;102576.78;4900635;29;20028;-70
2022/08/09 02:25:47;;;;;;;59.20;56.20;;;;;;;24.69;38.06;102579.00;4900837;29;20033;-70
2022/08/09 02:28:28;;;;;;;56.28;53.40;;;;;;;24.66;38.22;102582.38;4900959;29;20032;-70
2022/08/09 02:31:01;;;;;;;57.55;54.35;;;;;;;24.63;38.58;102582.16;4900687;29;20032;-70
2022/08/09 02:33:32;;;;;;;55.25;52.45;;;;;;;24.61;38.49;102576.91;4900783;29;20032;-70
2022/08/09 02:35:59;;;;;;;55.88;52.97;;;;;;;24.57;38.51;102567.56;4900693;29;20032;-70
2022/08/09 02:38:31;;;;;;;53.73;51.13;;;;;;;24.55;38.51;102575.31;4900167;29;20037;-70
2022/08/09 02:41:07;;;;;;;55.15;52.20;;;;;;;24.52;38.03;102573.97;4900271;29;20053;-70
2022/08/09 02:43:34;;;;;;;55.55;52.70;;;;;;;24.51;38.65;102568.72;4900242;29;20040;-70
2022/08/09 02:46:01;;;;;;;57.70;54.95;;;;;;;24.49;38.44;102573.72;4900085;29;20060;-70
2022/08/09 02:48:29;;;;;;;55.47;52.70;;;;;;;24.46;38.50;102574.31;4900178;29;20110;-70
2022/08/09 02:50:57;;;;;;;53.90;51.00;;;;;;;24.43;38.67;102572.94;4900575;29;20040;-70
2022/08/09 02:53:37;;;;;;;53.42;50.78;;;;;;;24.40;38.79;102573.50;4900062;29;20060;-70
2022/08/09 02:56:04;;;;;;;55.78;52.95;;;;;;;24.36;38.38;102576.03;4900350;29;20169;-70
2022/08/09 02:58:32;;;;;;;54.40;51.40;;;;;;;24.35;38.20;102573.56;4900228;29;20130;-70
2022/08/09 03:00:59;;;;;;;53.90;50.92;;;;;;;24.32;38.22;102569.47;4900343;29;20142;-70
2022/08/09 03:03:27;;;;;;;54.78;51.90;;;;;;;24.30;38.34;102571.69;4899658;29;20042;-70
2022/08/09 03:05:55;;;;;;;53.92;51.22;;;;;;;24.29;38.69;102574.72;4899110;29;20143;-70
2022/08/09 03:08:22;;;;;;;54.83;51.72;;;;;;;24.26;38.42;102578.06;4899761;29;20036;-70
2022/08/09 03:10:48;;;;;;;56.38;53.47;;;;;;;24.24;38.77;102569.25;4899936;29;20082;-70
2022/08/09 03:13:15;;;;;;;54.20;51.35;;;;;;;24.22;38.62;102574.22;4900223;29;20067;-70
2022/08/09 03:15:41;;;;;;;58.72;55.53;;;;;;;24.19;38.98;102570.97;4898470;29;20036;-70
2022/08/09 03:18:08;;;;;;;55.08;51.88;;;;;;;24.16;39.06;102574.28;4899378;29;20132;-70
2022/08/09 03:20:36;;;;;;;52.65;50.03;;;;;;;24.14;39.08;102573.78;4899617;29;20029;-70
2022/08/09 03:23:01;;;;;;;;;;;;;;;24.12;38.21;102575.19;4899783;29;20464;-70
2022/08/09 03:25:30;;;;;;;51.83;49.13;;;;;;;24.07;38.90;102570.53;4899459;29;19919;-70
2022/08/09 03:27:58;;;;;;;53.38;50.58;;;;;;;24.05;38.64;102577.44;4899349;29;20033;-70
2022/08/09 03:30:23;;;;;;;51.50;48.90;;;;;;;24.03;38.96;102574.97;4899462;29;20537;-70
2022/08/09 03:32:51;;;;;;;53.15;50.45;;;;;;;24.01;39.12;102573.59;4899373;29;20041;-71
2022/08/09 03:35:16;;;;;;;52.67;50.07;;;;;;;23.98;39.08;102578.59;4899743;29;20044;-70
2022/08/09 03:37:42;;;;;;;53.17;50.47;;;;;;;23.96;38.71;102578.06;4899376;29;20060;-71
2022/08/09 03:40:08;;;;;;;52.97;50.38;;;;;;;23.94;39.15;102582.25;4899464;29;20422;-71
2022/08/09 03:42:33;;;;;;;52.28;49.47;;;;;;;23.92;38.59;102578.94;4899748;29;20179;-70
2022/08/09 03:44:59;;;;;;;54.13;50.72;;;;;;;23.90;38.73;102579.22;4897945;29;20065;-69
2022/08/09 03:47:25;;;;;;;52.92;50.28;;;;;;;23.88;38.84;102575.09;4898171;29;20091;-69
2022/08/09 03:49:51;;;;;;;54.25;51.55;;;;;;;23.86;38.99;102577.31;4898978;29;20484;-70
2022/08/09 03:52:18;;;;;;;53.20;50.33;;;;;;;23.84;38.92;102585.06;4898924;29;20035;-69
2022/08/09 03:54:46;;;;;;;51.90;49.30;;;;;;;23.82;39.38;102581.78;4898962;29;20060;-70
2022/08/09 03:57:13;;;;;;;51.85;48.97;;;;;;;23.78;39.14;102578.75;4898911;29;20036;-71
2022/08/09 03:59:43;;;;;;;53.00;50.10;;;;;;;23.77;38.91;102576.31;4898789;29;20112;-71
2022/08/09 04:02:09;;;;;;;52.45;49.83;;;;;;;23.73;38.86;102576.84;4897870;29;20064;-69
2022/08/09 04:04:35;;;;;;;51.65;48.95;;;;;;;23.72;39.35;102577.13;4898428;29;20396;-69
2022/08/09 04:07:01;;;;;;;52.38;49.63;;;;;;;23.70;38.88;102580.16;4898688;29;20115;-70
2022/08/09 04:09:27;;;;;;;51.42;48.25;;;;;;;23.68;39.44;102576.03;4913181;29;20032;-69
2022/08/09 04:11:52;;;;;;;52.40;49.05;;;;;;;23.66;39.02;102581.03;4898608;29;20032;-70
2022/08/09 04:14:20;;;;;;;52.63;49.78;;;;;;;23.63;39.17;102576.91;4898396;29;20028;-69
2022/08/09 04:16:45;;;;;;;52.83;49.92;;;;;;;23.61;39.40;102579.16;4898490;29;20047;-69
2022/08/09 04:19:12;;;;;;;52.80;50.05;;;;;;;23.59;39.22;102581.38;4898420;29;20033;-69
2022/08/09 04:21:38;;;;;;;50.10;47.53;;;;;;;23.57;39.08;102586.34;4898712;29;20115;-69
2022/08/09 04:24:05;;;;;;;52.55;49.85;;;;;;;23.55;39.69;102588.53;4898820;29;20032;-69
2022/08/09 04:26:30;;;;;;;50.75;48.15;;;;;;;23.53;39.42;102582.50;4898850;29;20036;-72
2022/08/09 04:28:56;;;;;;;52.97;50.20;;;;;;;23.51;39.15;102587.47;4898495;29;20071;-70
2022/08/09 04:31:21;;;;;;;49.95;47.33;;;;;;;23.49;39.35;102586.94;4898833;29;20040;-71
2022/08/09 04:33:46;;;;;;;50.17;47.55;;;;;;;23.45;39.29;102594.94;4898354;29;20037;-70
2022/08/09 04:36:12;;;;;;;49.70;47.00;;;;;;;23.44;39.69;102595.25;4912900;29;20043;-70
2022/08/09 04:38:37;;;;;;;51.47;48.78;;;;;;;23.42;39.61;102600.22;4899005;29;20045;-70
2022/08/09 04:41:03;;;;;;;52.70;49.75;;;;;;;23.40;39.78;102600.50;4897933;29;20105;-70
2022/08/09 04:43:28;;;;;;;52.97;49.97;;;;;;;23.38;39.51;102601.91;4898298;29;20483;-70
2022/08/09 04:45:53;;;;;;;49.53;46.85;;;;;;;23.36;39.78;102602.19;4898185;29;20096;-71
2022/08/09 04:48:19;;;;;;;51.08;48.20;;;;;;;23.33;39.88;102608.25;4898823;29;20393;-70
2022/08/09 04:50:44;;;;;;;48.17;45.55;;;;;;;23.30;39.88;102600.56;4898267;29;20067;-70
2022/08/09 04:53:10;;;;;;;48.67;46.13;;;;;;;23.29;39.80;102605.25;4898710;29;20036;-70
2022/08/09 04:55:36;;;;;;;50.58;47.80;;;;;;;23.27;39.64;102606.66;4898661;29;20365;-70
2022/08/09 04:58:03;;;;;;;49.78;47.13;;;;;;;23.25;39.89;102601.41;4898323;29;20040;-70
2022/08/09 05:00:28;;;;;;;50.60;48.00;;;;;;;23.24;40.01;102604.47;4898318;29;20453;-70
2022/08/09 05:02:55;;;;;;;50.13;47.65;;;;;;;23.23;40.03;102605.56;4898210;29;20088;-70
2022/08/09 05:05:21;;;;;;;49.70;47.10;;;;;;;23.21;39.54;102603.09;4898602;29;20040;-70
2022/08/09 05:07:47;;;;;;;51.55;48.85;;;;;;;23.20;40.10;102606.13;4898147;29;20040;-70
2022/08/09 05:10:13;;;;;;;49.63;46.95;;;;;;;23.19;40.00;102608.06;4898017;29;20043;-70
2022/08/09 05:12:40;;;;;;;50.83;47.90;;;;;;;23.17;39.75;102607.50;4897959;29;20044;-70
2022/08/09 05:15:06;;;;;;;49.85;47.25;;;;;;;23.15;39.62;102606.97;4898228;29;20037;-70
2022/08/09 05:17:31;;;;;;;48.63;46.22;;;;;;;23.15;39.53;102606.16;4898029;29;20047;-70
2022/08/09 05:19:57;;;;;;;49.97;47.38;;;;;;;23.12;39.63;102607.53;4898231;29;20033;-70
2022/08/09 05:22:22;;;;;;;49.75;46.92;;;;;;;23.11;39.97;102608.66;4897859;29;20037;-70
2022/08/09 05:24:48;;;;;;;48.78;46.15;;;;;;;23.10;40.25;102615.25;4897551;29;20388;-69
2022/08/09 05:27:13;;;;;;;51.10;48.50;;;;;;;23.10;40.12;102609.75;4897788;29;20060;-69
2022/08/09 05:29:38;;;;;;;48.17;45.67;;;;;;;23.10;40.14;102615.25;4899944;29;20037;-69
2022/08/09 05:32:04;;;;;;;50.05;47.40;;;;;;;23.09;39.75;102621.91;4901631;29;20037;-70
2022/08/09 05:34:31;;;;;;;49.80;47.13;;;;;;;23.09;40.09;102624.66;4901853;29;20032;-70
2022/08/09 05:36:57;;;;;;;48.10;45.58;;;;;;;23.08;39.59;102623.84;4901640;29;20037;-71
2022/08/09 05:39:25;;;;;;;48.45;46.05;;;;;;;23.08;39.67;102620.22;4900693;29;20490;-70
2022/08/09 05:41:51;;;;;;;48.78;45.95;;;;;;;23.07;39.48;102627.69;4901847;29;20072;-70
2022/08/09 05:44:16;;;;;;;49.80;46.65;;;;;;;23.07;39.58;102616.66;4902082;29;20036;-70
2022/08/09 05:46:42;;;;;;;49.65;47.15;;;;;;;23.07;40.16;102621.34;4901450;29;20392;-70
2022/08/09 05:49:08;;;;;;;49.78;47.10;;;;;;;23.06;39.76;102626.03;4901063;29;20039;-70
2022/08/09 05:51:33;;;;;;;48.97;46.22;;;;;;;23.06;39.78;102625.22;4901334;29;20147;-70
2022/08/09 05:53:59;;;;;;;49.38;46.85;;;;;;;23.07;39.97;102632.38;4900903;29;20033;-70
2022/08/09 05:56:26;;;;;;;48.90;46.00;;;;;;;23.06;39.85;102625.22;4901278;29;20553;-69
2022/08/09 05:58:56;;;;;;;49.00;46.30;;;;;;;23.07;40.41;102626.84;4901103;29;20033;-69
2022/08/09 06:01:26;;;;;;;48.92;46.33;;;;;;;23.07;39.97;102629.63;4901080;29;20040;-70
2022/08/09 06:03:52;;;;;;;51.00;48.25;;;;;;;23.07;40.54;102633.19;4900967;29;20123;-69
2022/08/09 06:06:17;;;;;;;49.28;46.78;;;;;;;23.07;40.36;102626.84;4900075;29;20512;-69
2022/08/09 06:08:42;;;;;;;48.55;45.80;;;;;;;23.07;40.80;102632.38;4901254;29;20039;-69
2022/08/09 06:11:08;;;;;;;50.75;47.65;;;;;;;23.07;41.01;102640.63;4899857;29;20041;-68
2022/08/09 06:13:34;;;;;;;48.30;45.80;;;;;;;23.07;40.78;102644.22;4900840;29;20455;-69
2022/08/09 06:16:01;;;;;;;50.83;47.92;;;;;;;23.07;41.16;102648.91;4900230;29;20055;-69
2022/08/09 06:18:26;;;;;;;49.58;47.03;;;;;;;23.08;41.12;102656.06;4900677;29;20044;-68
2022/08/09 06:20:53;;;;;;;49.50;46.65;;;;;;;23.09;40.90;102654.97;4901080;29;20040;-68
2022/08/09 06:23:18;;;;;;;49.72;46.83;;;;;;;23.08;41.08;102650.53;4900484;29;20107;-69
2022/08/09 06:25:43;;;;;;;50.67;47.83;;;;;;;23.09;41.26;102646.69;4900489;29;20124;-69
2022/08/09 06:28:09;;;;;;;49.47;46.88;;;;;;;23.09;41.29;102653.03;4900427;29;20112;-69
2022/08/09 06:30:34;;;;;;;48.25;45.65;;;;;;;23.11;41.37;102661.03;4900654;29;20036;-69
2022/08/09 06:33:00;;;;;;;48.95;46.25;;;;;;;23.11;41.58;102650.00;4900343;29;20465;-69
2022/08/09 06:35:25;;;;;;;49.20;46.65;;;;;;;23.12;41.24;102648.88;4900075;29;20032;-69
2022/08/09 06:37:50;;;;;;;49.83;47.13;;;;;;;23.13;41.26;102649.72;4900659;29;20358;-69
2022/08/09 06:40:16;;;;;;;49.50;46.80;;;;;;;23.14;41.20;102649.44;4897912;29;20104;-70
2022/08/09 06:42:41;;;;;;;47.95;45.50;;;;;;;23.16;41.47;102647.22;4898831;29;20064;-69
2022/08/09 06:45:07;;;;;;;52.22;49.30;;;;;;;23.17;41.12;102654.38;4900322;29;20123;-69
2022/08/09 06:47:33;;;;;;;50.22;47.53;;;;;;;23.20;40.93;102653.00;4900101;29;20040;-69
2022/08/09 06:49:59;;;;;;;50.05;47.33;;;;;;;23.21;41.11;102661.00;4900533;29;20046;-70
2022/08/09 06:52:24;;;;;;;50.08;47.40;;;;;;;23.25;41.42;102655.72;4900032;29;20477;-70
2022/08/09 06:54:50;;;;;;;51.28;48.38;;;;;;;23.28;41.13;102655.16;4899977;29;20064;-70
2022/08/09 06:57:15;;;;;;;53.03;49.85;;;;;;;23.31;41.57;102649.09;4899809;29;20028;-69
2022/08/09 06:59:41;;;;;;;50.55;47.67;;;;;;;23.35;40.96;102646.59;4898382;29;20060;-69
2022/08/09 07:02:06;;;;;;;50.60;47.83;;;;;;;23.37;41.38;102663.69;4899548;29;20062;-69
2022/08/09 07:04:32;;;;;;;53.28;50.28;;;;;;;23.39;41.53;102653.19;4899848;29;20036;-69
2022/08/09 07:06:58;;;;;;;50.35;47.58;;;;;;;23.42;41.27;102667.22;4898442;29;20047;-69
2022/08/09 07:09:23;;;;;;;51.63;48.65;;;;;;;23.44;41.82;102670.53;4899461;29;20474;-68
2022/08/09 07:11:49;;;;;;;50.63;48.00;;;;;;;23.46;41.92;102668.31;4899802;29;20480;-68
2022/08/09 07:14:16;;;;;;;52.97;50.08;;;;;;;23.47;42.11;102675.47;4898160;29;20432;-68
2022/08/09 07:16:45;;;;;;;49.08;46.38;;;;;;;23.50;41.67;102674.09;4899169;29;20499;-68
2022/08/09 07:19:14;;;;;;;50.97;48.05;;;;;;;23.51;41.83;102671.06;4898112;29;20118;-68
2022/08/09 07:21:41;;;;;;;50.67;48.05;;;;;;;23.55;42.03;102669.38;4899419;29;20136;-68
2022/08/09 07:24:06;;;;;;;51.45;48.40;;;;;;;23.59;42.17;102674.34;4899163;29;20120;-68
2022/08/09 07:26:32;;;;;;;53.38;50.67;;;;;;;23.62;42.15;102660.78;4898126;29;20100;-68
2022/08/09 07:28:57;;;;;;;53.30;50.38;;;;;;;23.65;42.16;102670.44;4897909;29;20036;-69
2022/08/09 07:31:23;;;;;;;53.60;50.15;;;;;;;23.69;42.44;102663.25;4898927;29;20044;-68
2022/08/09 07:33:48;;;;;;;49.85;47.28;;;;;;;23.72;42.31;102666.28;4899134;29;20040;-68
2022/08/09 07:36:15;;;;;;;53.00;50.15;;;;;;;23.74;42.22;102664.06;4898936;29;20362;-69
2022/08/09 07:38:40;;;;;;;51.38;48.47;;;;;;;23.78;43.03;102669.00;4899305;29;20041;-68
2022/08/09 07:41:06;;;;;;;53.05;50.08;;;;;;;23.82;42.71;102672.84;4898550;29;20057;-67
2022/08/09 07:43:31;;;;;;;53.20;50.20;;;;;;;23.84;42.35;102671.44;4899386;29;20468;-69
2022/08/09 07:45:57;;;;;;;53.63;50.67;;;;;;;23.89;42.76;102676.94;4899312;29;20032;-68
2022/08/09 07:48:22;;;;;;;52.88;50.17;;;;;;;23.94;42.94;102676.09;4898755;29;20094;-68
2022/08/09 07:50:48;;;;;;;52.88;50.17;;;;;;;23.98;42.29;102680.72;4898777;29;20033;-68
2022/08/09 07:53:13;;;;;;;52.95;50.05;;;;;;;24.02;42.52;102666.38;4898765;29;20043;-69
2022/08/09 07:55:39;;;;;;;52.00;48.83;;;;;;;24.06;42.01;102676.53;4898829;29;20067;-69
2022/08/09 07:58:04;;;;;;;52.33;49.58;;;;;;;24.12;42.50;102680.91;4898990;29;20377;-68
2022/08/09 08:00:30;;;;;;;53.72;51.03;;;;;;;24.17;42.36;102680.06;4898629;29;20426;-68
2022/08/09 08:02:56;;;;;;;55.28;52.35;;;;;;;24.25;42.34;102682.19;4898619;29;20404;-68
2022/08/09 08:05:23;;;;;;;58.83;55.75;;;;;;;24.31;42.24;102688.50;4898683;29;20044;-67
2022/08/09 08:07:48;;;;;;;55.00;52.30;;;;;;;24.35;42.35;102678.53;4898271;29;20107;-67
2022/08/09 08:10:14;;;;;;;56.00;53.20;;;;;;;24.43;42.56;102677.06;4898449;29;20124;-68
2022/08/09 08:12:41;;;;;;;56.28;53.38;;;;;;;24.48;42.38;102680.63;4898749;29;20504;-69
2022/08/09 08:15:08;;;;;;;52.33;49.53;;;;;;;24.55;42.21;102683.06;4899118;29;20041;-67
2022/08/09 08:24:20;;;;;;;55.38;52.47;;;;;;;24.82;42.25;102676.97;4880031;29;20496;-67
2022/08/09 08:26:45;;;;;;;56.30;53.40;;;;;;;24.90;41.66;102684.66;4898458;29;20056;-68
2022/08/09 08:29:13;;;;;;;56.00;53.38;;;;;;;24.98;41.77;102686.75;4897974;29;20029;-69
2022/08/09 08:31:39;;;;;;;;;;;;;;;25.06;41.88;102677.00;4898618;29;20064;-68
2022/08/09 08:34:04;;;;;;;56.25;53.35;;;;;;;25.14;41.50;102681.06;4898689;29;20339;-69
2022/08/09 08:36:29;;;;;;;56.35;53.17;;;;;;;25.22;41.66;102685.97;4898292;29;20094;-68
2022/08/09 08:38:55;;;;;;;57.45;54.75;;;;;;;25.29;41.20;102680.09;4898591;29;20052;-72
2022/08/09 08:41:22;;;;;;;59.78;56.42;;;;;;;25.35;41.04;102685.25;4896940;29;20057;-70
2022/08/09 08:43:48;;;;;;;56.35;53.65;;;;;;;25.45;40.93;102679.59;4897241;29;20121;-72
2022/08/09 08:46:16;;;;;;;60.72;56.88;;;;;;;25.54;40.92;102676.16;4896877;29;20181;-71
2022/08/09 08:48:42;;;;;;;;;;;;;;;25.62;40.67;102681.84;4898481;29;20119;-69
2022/08/09 08:51:07;;;;;;;59.25;56.47;;;;;;;25.71;40.50;102684.78;4898134;29;20014;-68
2022/08/09 08:53:34;;;;;;;59.38;56.47;;;;;;;25.81;40.20;102692.13;4898595;29;20096;-69
2022/08/09 08:56:00;;;;;;;60.22;57.10;;;;;;;25.89;40.54;102694.22;4898089;29;20040;-69
2022/08/09 08:58:28;;;;;;;59.47;56.45;;;;;;;25.98;40.48;102686.06;4898454;29;20610;-69
2022/08/09 09:00:56;;;;;;;60.33;57.23;;;;;;;26.08;39.78;102689.50;4897986;29;20362;-69
2022/08/09 09:03:24;;;;;;;61.95;58.65;;;;;;;26.18;40.13;102691.25;4897251;29;20280;-70
2022/08/09 09:05:52;;;;;;;59.83;57.03;;;;;;;26.27;39.64;102695.00;4898541;29;20056;-69
2022/08/09 09:08:19;;;;;;;61.67;58.70;;;;;;;26.38;39.99;102694.84;4897935;29;20036;-69
2022/08/09 09:10:46;;;;;;;64.55;61.22;;;;;;;26.47;39.55;102699.38;4898051;29;20032;-69
2022/08/09 09:13:13;;;;;;;69.32;65.97;;;;;;;26.55;39.38;102693.16;4897918;29;20047;-69
2022/08/09 09:15:38;;;;;;;67.15;64.05;;;;;;;26.66;39.17;102702.13;4897817;29;20084;-69
2022/08/09 09:18:04;;;;;;;63.22;60.33;;;;;;;26.73;39.49;102694.22;4897886;29;20425;-69
2022/08/09 09:20:34;;;;;;;64.70;61.60;;;;;;;26.84;38.47;102705.97;4898132;29;20435;-69
2022/08/09 09:23:00;;;;;;;67.68;64.50;;;;;;;26.95;38.56;102701.03;4897886;29;20035;-69
2022/08/09 09:25:30;;;;;;;64.18;61.17;;;;;;;27.05;38.51;102700.03;4896659;29;20036;-69
2022/08/09 09:27:56;;;;;;;66.13;63.03;;;;;;;27.14;38.05;102698.16;4897870;29;20040;-69
2022/08/09 09:30:21;;;;;;;66.28;62.97;;;;;;;27.22;37.83;102691.94;4897794;29;20035;-69
2022/08/09 09:33:00;;;;;;;66.47;63.28;;;;;;;27.32;38.10;102690.91;4897933;29;20091;-69
2022/08/09 09:35:26;;;;;;;66.28;63.17;;;;;;;27.41;37.71;102702.91;4898589;29;20029;-69
2022/08/09 09:37:54;;;;;;;65.88;62.88;;;;;;;27.53;37.78;102696.81;4897406;29;20048;-70
2022/08/09 09:40:19;;;;;;;66.95;63.90;;;;;;;27.60;37.62;102692.50;4897442;29;20032;-70
2022/08/09 09:42:55;;;;;;;68.15;64.80;;;;;;;27.71;37.28;102697.81;4898391;29;20056;-70
2022/08/09 09:45:22;;;;;;;68.20;65.05;;;;;;;27.80;37.53;102690.41;4897912;29;20107;-70
2022/08/09 09:47:48;;;;;;;67.10;64.10;;;;;;;27.88;37.32;102694.41;4898025;29;20484;-69
2022/08/09 09:50:20;;;;;;;71.28;67.60;;;;;;;27.96;37.63;102688.91;4897694;29;20036;-69
2022/08/09 09:52:53;;;;;;;71.35;68.07;;;;;;;28.10;36.34;102690.81;4897942;29;20096;-69
2022/08/09 09:55:19;;;;;;;71.80;68.30;;;;;;;28.17;36.27;102689.25;4897586;29;20111;-70
2022/08/09 09:58:03;;;;;;;70.53;67.40;;;;;;;28.27;36.14;102691.78;4897790;29;20173;-69
2022/08/09 10:00:29;;;;;;;70.85;67.65;;;;;;;28.35;36.32;102697.69;4897656;29;20035;-69
2022/08/09 10:02:54;;;;;;;73.95;70.45;;;;;;;28.45;36.33;102705.78;4898137;29;20055;-70
2022/08/09 10:05:19;;;;;;;71.72;68.32;;;;;;;28.53;35.93;102707.00;4897577;29;20032;-70
2022/08/09 10:07:45;;;;;;;72.85;69.53;;;;;;;28.61;36.23;102715.38;4896352;29;20037;-69
2022/08/09 10:10:10;;;;;;;74.25;70.88;;;;;;;28.70;35.71;102693.19;4897422;29;20040;-69
2022/08/09 10:12:38;;;;;;;75.55;71.85;;;;;;;28.80;35.67;102706.81;4897835;29;20060;-68
2022/08/09 10:15:12;;;;;;;74.13;70.63;;;;;;;28.90;34.18;102700.16;4898645;29;20036;-68
2022/08/09 10:17:38;;;;;;;76.53;72.15;;;;;;;28.96;34.73;102698.06;4901406;29;20028;-69
2022/08/09 10:20:25;;;;;;;74.18;70.55;;;;;;;29.06;35.30;102692.25;4900822;29;20532;-69
2022/08/09 10:22:54;;;;;;;75.57;72.20;;;;;;;29.11;35.49;102695.69;4901516;29;20129;-68
2022/08/09 10:25:22;;;;;;;76.80;73.00;;;;;;;29.20;34.91;102687.34;4900598;29;20040;-68
2022/08/09 10:27:48;;;;;;;77.55;73.88;;;;;;;29.27;34.97;102687.69;4900646;29;20028;-68
2022/08/09 10:30:14;;;;;;;76.82;73.22;;;;;;;29.33;35.10;102680.84;4900637;29;20039;-70
2022/08/09 10:32:40;;;;;;;82.43;78.63;;;;;;;29.41;35.49;102687.59;4901025;29;20029;-70
2022/08/09 10:35:07;;;;;;;78.63;74.93;;;;;;;29.49;34.72;102685.97;4900440;29;20084;-68
2022/08/09 10:37:32;;;;;;;78.15;74.55;;;;;;;29.56;34.52;102677.94;4900331;29;20109;-69
2022/08/09 10:39:58;;;;;;;78.70;75.00;;;;;;;29.62;34.27;102682.19;4900702;29;20037;-69
2022/08/09 10:42:23;;;;;;;82.43;78.82;;;;;;;29.68;33.81;102680.91;4900492;29;20143;-70
2022/08/09 10:44:56;;;;;;;80.18;76.20;;;;;;;29.75;33.72;102672.88;4899527;29;20442;-69
2022/08/09 10:47:47;;;;;;;78.68;74.82;;;;;;;29.81;34.17;102672.72;4900536;29;20032;-68
2022/08/09 10:53:31;;;;;;;81.70;77.93;;;;;;;29.90;33.85;102671.59;4900723;29;20083;-69
2022/08/09 10:56:23;;;;;;;80.68;76.60;;;;;;;29.95;33.74;102665.03;4900061;29;20469;-69
2022/08/09 10:58:55;;;;;;;81.00;77.30;;;;;;;29.98;33.48;102667.97;4900607;29;20033;-69
2022/08/09 11:01:32;;;;;;;79.45;75.85;;;;;;;30.02;33.32;102670.13;4915427;29;20129;-69
2022/08/09 11:04:27;;;;;;;80.75;77.00;;;;;;;30.07;33.48;102670.75;4900103;29;20141;-69
2022/08/09 11:06:58;;;;;;;79.90;76.38;;;;;;;30.11;33.17;102668.13;4900472;29;20040;-69
2022/08/09 11:09:38;;;;;;;79.00;75.20;;;;;;;30.14;33.68;102654.34;4899644;29;20122;-69
2022/08/09 11:12:20;;;;;;;78.05;74.55;;;;;;;30.16;33.95;102668.78;4900110;29;20086;-69
2022/08/09 11:14:47;;;;;;;80.38;76.68;;;;;;;30.18;33.87;102666.47;4900026;29;20119;-69
2022/08/09 11:17:12;;;;;;;83.55;79.72;;;;;;;30.23;33.70;102659.09;4898680;29;20040;-69
2022/08/09 11:20:08;;;;;;;81.45;77.65;;;;;;;30.25;34.16;102657.63;4899836;29;20055;-69
2022/08/09 11:22:40;;;;;;;82.80;79.00;;;;;;;30.28;34.01;102662.53;4899813;29;20037;-69
2022/08/09 11:25:11;;;;;;;83.30;79.50;;;;;;;30.31;32.45;102661.06;4899628;29;20033;-68
2022/08/09 11:27:40;;;;;;;81.10;77.22;;;;;;;30.33;32.03;102659.56;4899143;29;20044;-69